Time;durP1;ratioP1;P1;durP2;ratioP2;P2;SDS_P1;SDS_P2;PMS_P1;PMS_P2;Temp;Humidity;BMP_temperature;BMP_pressure;BME280_temperature;BME280_humidity;BME280_pressure;Samples;Min_cycle;Max_cycle;Signal;HPM_P1;HPM_P2
2022/06/29 00:00:13;;;;;;;0.40;0.10;;;28.40;35.90;;;;;;5073842;28;20032;-45
2022/06/29 00:02:40;;;;;;;0.20;0.10;;;28.40;36.00;;;;;;5074796;28;20126;-41
2022/06/29 00:05:08;;;;;;;0.73;0.13;;;28.40;35.90;;;;;;5074464;28;20048;-42
2022/06/29 00:07:35;;;;;;;0.40;0.10;;;28.40;36.00;;;;;;5073405;28;20786;-44
2022/06/29 00:10:04;;;;;;;0.60;0.30;;;28.30;36.00;;;;;;5068231;28;20032;-41
2022/06/29 00:12:32;;;;;;;0.73;0.10;;;28.40;36.10;;;;;;5077051;28;20044;-43
2022/06/29 00:15:02;;;;;;;0.20;0.10;;;28.30;36.10;;;;;;5080940;28;20051;-42
2022/06/29 00:17:30;;;;;;;0.57;0.57;;;28.30;36.10;;;;;;5073121;28;20455;-43
2022/06/29 00:19:58;;;;;;;1.08;0.20;;;28.30;36.20;;;;;;5073902;28;20044;-41
2022/06/29 00:22:26;;;;;;;0.25;0.10;;;28.30;36.20;;;;;;5073656;28;20024;-41
2022/06/29 00:24:53;;;;;;;0.25;0.17;;;28.30;36.30;;;;;;5075273;28;20095;-42
2022/06/29 00:27:21;;;;;;;3.50;0.10;;;28.30;36.30;;;;;;5073863;28;20045;-41
2022/06/29 00:29:49;;;;;;;0.38;0.10;;;28.30;36.40;;;;;;5074917;28;20040;-43
2022/06/29 00:32:17;;;;;;;0.20;0.10;;;28.30;36.40;;;;;;5076160;28;20115;-41
2022/06/29 00:34:44;;;;;;;1.05;0.25;;;28.30;36.40;;;;;;5072479;28;20050;-42
2022/06/29 00:37:11;;;;;;;1.20;0.10;;;28.20;36.40;;;;;;5067082;28;20145;-42
2022/06/29 00:39:38;;;;;;;1.13;0.10;;;28.30;36.50;;;;;;5073784;28;20150;-46
2022/06/29 00:42:06;;;;;;;0.03;0.03;;;28.20;36.50;;;;;;5078767;28;20115;-41
2022/06/29 00:44:33;;;;;;;1.35;0.10;;;28.20;36.70;;;;;;5080215;28;20032;-43
2022/06/29 00:47:04;;;;;;;1.00;0.10;;;28.20;36.80;;;;;;5078868;28;20044;-41
2022/06/29 00:49:33;;;;;;;0.50;0.50;;;28.20;36.90;;;;;;5075386;28;20032;-40
2022/06/29 00:52:05;;;;;;;1.35;0.10;;;28.20;37.00;;;;;;5073848;28;20045;-40
2022/06/29 00:54:36;;;;;;;0.30;0.10;;;28.20;37.00;;;;;;5073238;28;20127;-41
2022/06/29 00:57:07;;;;;;;2.70;0.10;;;28.20;37.10;;;;;;5075388;28;20474;-41
2022/06/29 00:59:42;;;;;;;0.10;0.10;;;28.20;37.10;;;;;;5077274;28;20039;-42
2022/06/29 01:02:12;;;;;;;3.45;0.10;;;28.20;37.20;;;;;;5073033;28;20043;-43
2022/06/29 01:04:40;;;;;;;2.40;0.10;;;28.20;37.20;;;;;;5068421;28;20128;-42
2022/06/29 01:07:07;;;;;;;0.40;0.10;;;28.20;37.20;;;;;;5071194;28;20639;-42
2022/06/29 01:09:34;;;;;;;1.17;0.10;;;28.20;37.30;;;;;;5075596;28;20136;-43
2022/06/29 01:12:02;;;;;;;0.77;0.28;;;28.20;37.30;;;;;;5081186;28;20131;-44
2022/06/29 01:14:29;;;;;;;0.40;0.10;;;28.20;37.30;;;;;;5077788;28;20529;-44
2022/06/29 01:16:56;;;;;;;1.90;0.08;;;28.20;37.30;;;;;;5067232;28;20115;-44
2022/06/29 01:19:25;;;;;;;0.75;0.20;;;28.20;37.40;;;;;;5080018;28;20509;-44
2022/06/29 01:21:54;;;;;;;0.55;0.05;;;28.20;37.40;;;;;;5073093;28;20478;-44
2022/06/29 01:24:24;;;;;;;0.85;0.10;;;28.20;37.50;;;;;;5075224;28;20040;-42
2022/06/29 01:26:51;;;;;;;0.30;0.10;;;28.20;37.50;;;;;;5073516;28;20047;-42
2022/06/29 01:29:18;;;;;;;1.13;0.10;;;28.10;37.50;;;;;;5075149;28;20032;-43
2022/06/29 01:31:45;;;;;;;0.28;0.10;;;28.10;37.50;;;;;;5070055;28;20040;-42
2022/06/29 01:34:12;;;;;;;0.10;0.00;;;28.20;37.60;;;;;;5062743;28;20519;-45
2022/06/29 01:36:40;;;;;;;1.60;0.20;;;28.10;37.60;;;;;;5071604;28;20086;-45
2022/06/29 01:39:08;;;;;;;0.40;0.10;;;28.10;37.60;;;;;;5076168;28;20094;-41
2022/06/29 01:41:36;;;;;;;0.35;0.35;;;28.10;37.60;;;;;;5076512;28;20039;-43
2022/06/29 01:44:03;;;;;;;0.10;0.08;;;28.10;37.70;;;;;;5078321;28;20041;-43
2022/06/29 01:46:30;;;;;;;0.75;0.22;;;28.10;37.80;;;;;;5069386;28;20040;-44
2022/06/29 01:48:57;;;;;;;0.10;0.10;;;28.10;37.80;;;;;;5081131;28;20044;-42
2022/06/29 01:51:25;;;;;;;0.65;0.10;;;28.10;37.80;;;;;;5077087;28;20120;-44
2022/06/29 01:53:52;;;;;;;0.40;0.30;;;28.10;37.90;;;;;;5077873;28;20036;-45
2022/06/29 01:56:19;;;;;;;0.88;0.10;;;28.00;37.90;;;;;;5071889;28;20121;-44
2022/06/29 01:58:47;;;;;;;0.85;0.10;;;28.00;38.00;;;;;;5071658;28;20531;-44
2022/06/29 02:01:15;;;;;;;1.90;0.10;;;28.00;38.00;;;;;;5059356;28;20043;-47
2022/06/29 02:03:42;;;;;;;2.58;0.10;;;28.00;38.00;;;;;;5078480;28;20044;-41
2022/06/29 02:06:09;;;;;;;1.38;0.17;;;28.00;38.00;;;;;;5075203;28;20509;-44
2022/06/29 02:08:36;;;;;;;1.80;0.30;;;28.00;38.10;;;;;;5079873;28;20051;-43
2022/06/29 02:11:04;;;;;;;1.30;0.10;;;28.00;38.20;;;;;;5072038;28;20048;-46
2022/06/29 02:13:31;;;;;;;0.73;0.10;;;27.90;38.20;;;;;;5074101;28;20516;-42
2022/06/29 02:16:00;;;;;;;2.00;0.10;;;28.00;38.30;;;;;;5074978;28;20093;-43
2022/06/29 02:18:27;;;;;;;0.82;0.10;;;27.90;38.20;;;;;;5080292;28;20040;-48
2022/06/29 02:20:54;;;;;;;1.38;0.10;;;27.90;38.20;;;;;;5074387;28;20047;-46
2022/06/29 02:23:21;;;;;;;0.10;0.10;;;27.90;38.30;;;;;;5077947;28;20052;-42
2022/06/29 02:25:49;;;;;;;3.13;0.10;;;27.90;38.30;;;;;;5074652;28;20541;-42
2022/06/29 02:28:16;;;;;;;0.65;0.10;;;27.90;38.40;;;;;;5077586;28;20102;-45
2022/06/29 02:36:14;;;;;;;1.75;0.10;;;27.90;38.50;;;;;;5087571;28;20047;-40
2022/06/29 02:38:41;;;;;;;1.05;0.00;;;27.90;38.50;;;;;;5075792;28;20036;-42
2022/06/29 02:41:08;;;;;;;1.77;0.38;;;27.90;38.60;;;;;;5082369;28;20162;-42
2022/06/29 02:43:35;;;;;;;2.35;0.30;;;27.80;38.50;;;;;;5068395;28;20511;-42
2022/06/29 02:46:02;;;;;;;0.13;0.10;;;27.80;38.50;;;;;;5070619;28;20409;-43
2022/06/29 02:48:32;;;;;;;0.50;0.10;;;27.90;38.60;;;;;;5087674;28;20047;-43
2022/06/29 02:50:59;;;;;;;0.45;0.45;;;27.80;38.60;;;;;;5080306;28;20040;-42
2022/06/29 02:53:26;;;;;;;0.90;0.10;;;27.80;38.60;;;;;;5074061;28;20596;-42
2022/06/29 02:55:54;;;;;;;0.57;0.10;;;27.80;38.60;;;;;;5074718;28;20505;-42
2022/06/29 02:58:21;;;;;;;0.52;0.10;;;27.80;38.60;;;;;;5077707;28;20043;-43
2022/06/29 03:00:48;;;;;;;0.73;0.10;;;27.80;38.60;;;;;;5075051;28;20123;-45
2022/06/29 03:03:15;;;;;;;0.40;0.10;;;27.80;38.60;;;;;;5080025;28;20043;-41
2022/06/29 03:05:43;;;;;;;1.00;0.10;;;27.80;38.70;;;;;;5073504;28;20076;-41
2022/06/29 03:08:10;;;;;;;2.22;0.10;;;27.80;38.70;;;;;;5077497;28;20046;-42
2022/06/29 03:10:37;;;;;;;0.40;0.10;;;27.80;38.80;;;;;;5073664;28;20526;-43
2022/06/29 03:13:04;;;;;;;2.05;0.10;;;27.70;38.70;;;;;;5083000;28;20079;-41
2022/06/29 03:15:31;;;;;;;0.13;0.10;;;27.70;38.70;;;;;;5077908;28;20080;-45
2022/06/29 03:17:58;;;;;;;1.30;0.17;;;27.70;38.80;;;;;;5077304;28;20052;-40
2022/06/29 03:20:26;;;;;;;2.10;0.20;;;27.70;38.80;;;;;;5073198;28;20042;-41
2022/06/29 03:22:54;;;;;;;0.68;0.20;;;27.70;38.80;;;;;;5074445;28;20032;-41
2022/06/29 03:25:21;;;;;;;0.30;0.10;;;27.70;38.90;;;;;;5071058;28;20040;-40
2022/06/29 03:27:48;;;;;;;1.10;0.00;;;27.70;38.90;;;;;;5075946;28;20218;-41
2022/06/29 03:30:16;;;;;;;1.33;0.10;;;27.70;38.90;;;;;;5073559;28;20044;-44
2022/06/29 03:32:43;;;;;;;0.65;0.10;;;27.70;39.00;;;;;;5075964;28;20045;-43
2022/06/29 03:35:10;;;;;;;1.08;0.00;;;27.70;39.00;;;;;;5077287;28;20036;-41
2022/06/29 03:37:37;;;;;;;1.00;0.00;;;27.70;39.00;;;;;;5073915;28;20036;-42
2022/06/29 03:40:07;;;;;;;0.57;0.00;;;27.60;38.90;;;;;;5068739;28;20047;-43
2022/06/29 03:42:34;;;;;;;0.10;0.00;;;27.70;39.00;;;;;;5085508;28;20048;-42
2022/06/29 03:45:01;;;;;;;0.30;0.08;;;27.70;39.10;;;;;;5081863;28;20123;-42
2022/06/29 03:47:29;;;;;;;0.10;0.03;;;27.70;39.20;;;;;;5072775;28;20033;-42
2022/06/29 03:49:56;;;;;;;2.47;0.10;;;27.70;39.20;;;;;;5078300;28;20044;-44
2022/06/29 03:52:23;;;;;;;0.00;0.00;;;27.60;39.10;;;;;;5071841;28;20033;-41
2022/06/29 03:54:50;;;;;;;0.52;0.20;;;27.70;39.20;;;;;;5076171;28;20074;-41
2022/06/29 03:57:19;;;;;;;0.63;0.10;;;27.60;39.80;;;;;;5074268;28;20041;-43
2022/06/29 03:59:46;;;;;;;1.17;0.10;;;27.60;39.30;;;;;;5076663;28;20055;-43
2022/06/29 04:02:13;;;;;;;0.38;0.00;;;27.60;39.30;;;;;;5076830;28;20040;-43
2022/06/29 04:04:40;;;;;;;1.20;0.03;;;27.60;39.40;;;;;;5073967;28;20500;-46
2022/06/29 04:07:07;;;;;;;0.10;0.00;;;27.60;39.40;;;;;;5067431;28;20041;-41
2022/06/29 04:09:35;;;;;;;0.32;0.10;;;27.60;39.50;;;;;;5073924;28;20045;-48
2022/06/29 04:12:03;;;;;;;1.70;0.10;;;27.60;39.60;;;;;;5082857;28;20047;-46
2022/06/29 04:14:31;;;;;;;0.60;0.20;;;27.60;39.70;;;;;;5076925;28;20072;-43
2022/06/29 04:16:59;;;;;;;1.38;0.10;;;27.60;39.70;;;;;;5074095;28;20131;-40
2022/06/29 04:19:26;;;;;;;0.93;0.05;;;27.60;39.80;;;;;;5076660;28;20043;-42
2022/06/29 04:21:54;;;;;;;0.13;0.10;;;27.60;39.90;;;;;;5084905;28;20044;-40
2022/06/29 04:24:22;;;;;;;1.38;0.55;;;27.60;40.00;;;;;;5073620;28;20065;-42
2022/06/29 04:26:49;;;;;;;0.00;0.00;;;27.60;40.00;;;;;;5081611;28;20059;-41
2022/06/29 04:29:17;;;;;;;0.30;0.20;;;27.60;40.10;;;;;;5075621;28;20139;-41
2022/06/29 04:31:45;;;;;;;3.80;0.10;;;27.60;40.10;;;;;;5072309;28;20044;-41
2022/06/29 04:34:12;;;;;;;1.95;0.15;;;27.60;40.10;;;;;;5069994;28;20032;-43
2022/06/29 04:36:39;;;;;;;1.65;0.00;;;27.60;40.10;;;;;;5074719;28;20969;-40
2022/06/29 04:39:06;;;;;;;0.40;0.40;;;27.50;40.10;;;;;;5073913;28;20504;-42
2022/06/29 04:41:33;;;;;;;1.30;0.10;;;27.60;40.10;;;;;;5080884;28;20043;-43
2022/06/29 04:44:00;;;;;;;0.30;0.00;;;27.60;40.10;;;;;;5082507;28;20075;-44
2022/06/29 04:46:27;;;;;;;0.10;0.10;;;27.50;40.10;;;;;;5072229;28;20439;-43
2022/06/29 04:48:58;;;;;;;0.10;0.10;;;27.50;40.10;;;;;;5071520;28;20072;-43
2022/06/29 04:51:32;;;;;;;1.00;0.10;;;27.50;40.10;;;;;;5075634;28;20128;-45
2022/06/29 04:54:00;;;;;;;0.68;0.10;;;27.50;40.10;;;;;;5076496;28;20048;-42
2022/06/29 04:56:28;;;;;;;1.38;0.10;;;27.60;40.10;;;;;;5071437;28;20050;-41
2022/06/29 04:58:56;;;;;;;2.00;0.15;;;27.50;40.10;;;;;;5073688;28;20036;-41
2022/06/29 05:01:24;;;;;;;0.60;0.10;;;27.50;40.10;;;;;;5069442;28;20360;-41
2022/06/29 05:03:52;;;;;;;0.90;0.08;;;27.60;40.10;;;;;;5077418;28;20082;-41
2022/06/29 05:06:22;;;;;;;0.52;0.10;;;27.50;40.20;;;;;;5073366;28;20045;-45
2022/06/29 05:08:49;;;;;;;0.82;0.10;;;27.50;40.20;;;;;;5074149;28;20072;-41
2022/06/29 05:11:18;;;;;;;1.75;0.10;;;27.60;40.20;;;;;;5074536;28;20416;-45
2022/06/29 05:13:46;;;;;;;1.27;0.10;;;27.50;40.20;;;;;;5081378;28;20568;-44
2022/06/29 05:16:13;;;;;;;0.45;0.10;;;27.60;40.20;;;;;;5073520;28;20428;-46
2022/06/29 05:18:40;;;;;;;0.52;0.10;;;27.60;40.20;;;;;;5064719;28;20448;-46
2022/06/29 05:21:09;;;;;;;0.10;0.10;;;27.50;40.10;;;;;;5085321;28;20119;-41
2022/06/29 05:23:37;;;;;;;0.40;0.10;;;27.50;40.10;;;;;;5072307;28;20045;-43
2022/06/29 05:26:05;;;;;;;0.17;0.10;;;27.50;40.00;;;;;;5069988;28;20127;-42
2022/06/29 05:28:33;;;;;;;1.60;0.10;;;27.50;39.90;;;;;;5067800;28;20413;-42
2022/06/29 05:31:00;;;;;;;0.30;0.10;;;27.50;39.90;;;;;;5073465;28;20047;-45
2022/06/29 05:33:35;;;;;;;1.88;0.10;;;27.60;39.70;;;;;;5072409;28;20414;-43
2022/06/29 05:36:03;;;;;;;1.20;0.10;;;27.50;39.50;;;;;;5074120;28;20040;-41
2022/06/29 05:38:31;;;;;;;1.55;0.10;;;27.50;39.40;;;;;;5076810;28;20038;-43
2022/06/29 05:41:00;;;;;;;2.28;0.08;;;27.40;39.20;;;;;;5078612;28;20040;-43
2022/06/29 05:43:28;;;;;;;1.65;0.20;;;27.40;39.10;;;;;;5081613;28;20068;-42
2022/06/29 05:45:55;;;;;;;1.30;0.10;;;27.40;39.10;;;;;;5074865;28;20095;-41
2022/06/29 05:48:22;;;;;;;0.50;0.10;;;27.40;39.10;;;;;;5085740;28;20154;-42
2022/06/29 05:50:49;;;;;;;1.10;0.10;;;27.30;39.00;;;;;;5070647;28;20045;-42
2022/06/29 05:53:17;;;;;;;0.82;0.10;;;27.30;39.00;;;;;;5076882;28;20040;-43
2022/06/29 05:55:45;;;;;;;0.57;0.10;;;27.30;39.50;;;;;;5079683;28;20050;-42
2022/06/29 05:58:18;;;;;;;1.48;0.10;;;27.30;38.90;;;;;;5076766;28;20043;-41
2022/06/29 06:00:47;;;;;;;0.68;0.20;;;27.30;38.90;;;;;;5086824;28;20082;-42
2022/06/29 06:03:15;;;;;;;4.97;0.45;;;27.20;38.80;;;;;;5069267;28;20167;-43
2022/06/29 06:05:42;;;;;;;0.40;0.25;;;27.20;38.70;;;;;;5071380;28;20072;-42
2022/06/29 06:08:11;;;;;;;2.13;0.10;;;27.20;38.70;;;;;;5076454;28;20142;-42
2022/06/29 06:10:39;;;;;;;0.55;0.20;;;27.20;38.70;;;;;;5074093;28;20131;-42
2022/06/29 06:13:06;;;;;;;0.75;0.10;;;27.20;38.80;;;;;;5075298;28;20090;-43
2022/06/29 06:15:35;;;;;;;3.75;0.20;;;27.20;38.70;;;;;;5082181;28;20075;-42
2022/06/29 06:18:03;;;;;;;0.90;0.10;;;27.20;38.80;;;;;;5076287;28;20106;-41
2022/06/29 06:20:31;;;;;;;3.40;0.10;;;27.20;38.70;;;;;;5079160;28;20068;-43
2022/06/29 06:22:58;;;;;;;1.35;0.10;;;27.10;38.70;;;;;;5073979;28;20078;-41
2022/06/29 06:25:25;;;;;;;0.40;0.10;;;27.10;38.70;;;;;;5082184;28;20029;-43
2022/06/29 06:27:53;;;;;;;0.88;0.28;;;27.10;38.60;;;;;;5084226;28;20388;-42
2022/06/29 06:30:20;;;;;;;1.67;0.30;;;27.10;38.60;;;;;;5077068;28;20068;-42
2022/06/29 06:32:49;;;;;;;1.35;0.28;;;27.10;38.70;;;;;;5082054;28;20044;-44
2022/06/29 06:35:16;;;;;;;1.45;0.63;;;27.10;38.50;;;;;;5072997;28;20044;-43
2022/06/29 06:37:44;;;;;;;0.95;0.47;;;27.10;38.50;;;;;;5073669;28;20055;-42
2022/06/29 06:42:56;;;;;;;0.60;0.10;;;27.00;38.40;;;;;;5087921;28;20040;-47
2022/06/29 06:45:24;;;;;;;2.15;0.32;;;27.10;38.60;;;;;;5060523;28;20318;-44
2022/06/29 06:47:54;;;;;;;1.77;0.10;;;27.00;38.40;;;;;;5078291;28;20071;-42
2022/06/29 06:50:21;;;;;;;1.98;0.75;;;27.00;38.30;;;;;;5080041;28;20041;-41
2022/06/29 06:52:49;;;;;;;2.55;0.35;;;27.00;38.30;;;;;;5077423;28;20083;-44
2022/06/29 06:55:16;;;;;;;0.52;0.10;;;27.00;38.30;;;;;;5075373;28;20044;-41
2022/06/29 06:57:43;;;;;;;0.63;0.10;;;27.00;38.20;;;;;;5083548;28;20044;-41
2022/06/29 07:00:11;;;;;;;2.92;0.43;;;27.00;38.20;;;;;;5075289;28;20094;-42
2022/06/29 07:02:40;;;;;;;2.95;0.20;;;27.00;38.10;;;;;;5077213;28;20428;-44
2022/06/29 07:05:09;;;;;;;1.23;0.10;;;27.00;38.10;;;;;;5076979;28;20099;-43
2022/06/29 07:07:36;;;;;;;0.98;0.10;;;27.00;38.10;;;;;;5075124;28;20109;-43
2022/06/29 07:10:04;;;;;;;1.33;0.10;;;27.00;38.10;;;;;;5069675;28;20148;-43
2022/06/29 07:12:32;;;;;;;0.63;0.10;;;27.00;38.10;;;;;;5078504;28;20489;-42
2022/06/29 07:14:59;;;;;;;0.13;0.03;;;27.00;38.10;;;;;;5079246;28;20056;-43
2022/06/29 07:17:27;;;;;;;1.40;0.68;;;27.00;38.00;;;;;;5078121;28;20039;-42
2022/06/29 07:19:54;;;;;;;0.43;0.20;;;27.00;38.00;;;;;;5080697;28;20094;-41
2022/06/29 07:22:23;;;;;;;1.80;0.13;;;27.00;38.00;;;;;;5063815;28;20036;-44
2022/06/29 07:24:50;;;;;;;1.10;0.10;;;27.00;37.90;;;;;;5082621;28;20048;-46
2022/06/29 07:27:17;;;;;;;1.33;0.50;;;27.00;37.90;;;;;;5084677;28;20700;-46
2022/06/29 07:29:45;;;;;;;3.22;0.10;;;27.00;37.90;;;;;;5083927;28;20519;-64
2022/06/29 07:32:12;;;;;;;10.55;0.10;;;27.00;38.20;;;;;;5082583;28;20115;-64
2022/06/29 07:34:39;;;;;;;1.25;0.22;;;27.10;38.30;;;;;;5081030;28;20507;-62
2022/06/29 07:37:07;;;;;;;0.47;0.10;;;27.10;38.40;;;;;;5041904;28;20110;-65
2022/06/29 07:39:36;;;;;;;0.77;0.20;;;27.20;38.50;;;;;;5087371;28;20048;-66
2022/06/29 07:42:04;;;;;;;1.27;0.10;;;27.30;38.50;;;;;;5072232;28;20059;-64
2022/06/29 07:44:31;;;;;;;0.20;0.10;;;27.50;38.50;;;;;;5071636;28;20040;-49
2022/06/29 07:46:58;;;;;;;3.95;0.68;;;27.70;38.20;;;;;;5071673;28;20044;-60
2022/06/29 07:49:26;;;;;;;1.77;0.10;;;27.80;38.00;;;;;;5074096;28;20036;-55
2022/06/29 07:51:53;;;;;;;1.73;0.20;;;28.00;37.80;;;;;;5067920;28;20045;-57
2022/06/29 07:54:21;;;;;;;0.50;0.10;;;28.10;37.30;;;;;;5072385;28;20076;-60
2022/06/29 07:56:49;;;;;;;3.38;0.10;;;28.30;37.10;;;;;;5072384;28;20045;-61
2022/06/29 07:59:16;;;;;;;2.28;0.10;;;28.50;36.70;;;;;;5072799;28;20036;-56
2022/06/29 08:01:44;;;;;;;2.17;0.38;;;28.60;36.20;;;;;;5075908;28;20040;-62
2022/06/29 08:04:12;;;;;;;4.13;0.10;;;28.70;35.90;;;;;;5041848;28;22209;-60
2022/06/29 08:06:39;;;;;;;5.50;0.20;;;28.80;35.80;;;;;;5056391;28;20044;-62
2022/06/29 08:09:06;;;;;;;0.82;0.63;;;28.80;35.50;;;;;;5058522;28;20907;-61
2022/06/29 08:11:34;;;;;;;1.10;0.10;;;28.90;35.40;;;;;;5055415;28;20459;-60
2022/06/29 08:14:03;;;;;;;0.85;0.10;;;29.00;35.70;;;;;;5058405;28;20680;-49
2022/06/29 08:16:30;;;;;;;2.33;0.10;;;29.00;35.50;;;;;;5049901;28;20189;-60
2022/06/29 08:18:57;;;;;;;0.80;0.10;;;29.10;35.30;;;;;;5052728;28;20056;-52
2022/06/29 08:21:24;;;;;;;1.08;0.10;;;29.20;35.40;;;;;;5058037;28;20119;-58
2022/06/29 08:23:51;;;;;;;3.00;0.38;;;29.20;35.30;;;;;;5055980;28;20049;-55
2022/06/29 08:26:19;;;;;;;0.15;0.00;;;29.20;35.40;;;;;;5053390;28;20064;-56
2022/06/29 08:28:46;;;;;;;0.88;0.00;;;29.30;35.50;;;;;;5051441;28;20060;-55
2022/06/29 08:31:15;;;;;;;2.50;0.40;;;29.40;35.50;;;;;;5053504;28;20033;-56
2022/06/29 08:33:42;;;;;;;0.73;0.10;;;29.40;35.20;;;;;;5058407;28;20048;-61
2022/06/29 08:36:10;;;;;;;0.20;0.03;;;29.50;35.20;;;;;;5053069;28;20060;-57
2022/06/29 08:38:37;;;;;;;1.95;0.10;;;29.50;35.10;;;;;;5053154;28;20514;-60
2022/06/29 08:41:05;;;;;;;5.70;0.10;;;29.60;35.20;;;;;;5050753;28;20040;-56
2022/06/29 08:43:32;;;;;;;0.43;0.10;;;29.60;35.00;;;;;;5050023;28;20050;-57
2022/06/29 08:46:00;;;;;;;4.13;0.20;;;29.60;34.20;;;;;;5046537;28;20594;-58
2022/06/29 08:48:30;;;;;;;0.90;0.00;;;29.70;34.10;;;;;;5054428;28;20040;-56
2022/06/29 08:50:57;;;;;;;1.85;0.10;;;29.70;33.90;;;;;;5056234;28;20041;-58
2022/06/29 08:53:26;;;;;;;1.20;0.10;;;29.70;33.50;;;;;;5047777;28;20502;-68
2022/06/29 08:55:55;;;;;;;3.95;0.47;;;29.70;33.60;;;;;;5064007;28;20048;-55
2022/06/29 08:58:23;;;;;;;0.43;0.10;;;29.70;33.50;;;;;;5060286;28;20037;-53
2022/06/29 09:00:52;;;;;;;1.13;0.10;;;29.70;33.30;;;;;;5066143;28;20588;-52
2022/06/29 09:03:21;;;;;;;0.88;0.00;;;29.80;33.20;;;;;;5051809;28;20041;-54
2022/06/29 09:05:51;;;;;;;0.50;0.00;;;29.80;33.10;;;;;;5075818;28;20132;-60
2022/06/29 09:08:19;;;;;;;1.85;0.10;;;29.80;33.30;;;;;;5078329;28;20123;-54
2022/06/29 09:10:47;;;;;;;1.55;0.10;;;29.80;33.20;;;;;;5067507;28;20154;-61
2022/06/29 09:13:20;;;;;;;1.30;0.10;;;29.80;33.30;;;;;;5081826;28;20043;-61
2022/06/29 09:15:48;;;;;;;0.10;0.00;;;29.90;33.20;;;;;;5081539;28;20512;-61
2022/06/29 09:18:27;;;;;;;0.52;0.10;;;29.90;33.20;;;;;;5079392;28;20151;-61
2022/06/29 09:20:57;;;;;;;0.63;0.10;;;29.90;33.10;;;;;;5061992;28;20526;-61
2022/06/29 09:23:25;;;;;;;0.20;0.10;;;29.90;33.00;;;;;;5078038;28;20107;-55
2022/06/29 09:25:53;;;;;;;1.10;0.10;;;29.90;33.00;;;;;;5084898;28;20142;-65
2022/06/29 09:28:23;;;;;;;2.15;0.32;;;30.00;33.20;;;;;;5072304;28;20044;-61
2022/06/29 09:30:53;;;;;;;0.68;0.10;;;30.10;33.00;;;;;;5080129;28;20044;-66
2022/06/29 09:33:22;;;;;;;0.82;0.00;;;30.10;33.40;;;;;;5079920;28;20038;-65
2022/06/29 09:36:06;;;;;;;0.40;0.10;;;30.20;32.50;;;;;;5074978;28;20518;-62
2022/06/29 09:38:35;;;;;;;3.85;0.43;;;30.30;32.50;;;;;;5073163;28;20040;-66
2022/06/29 09:41:05;;;;;;;0.77;0.10;;;30.30;32.60;;;;;;5074348;28;20101;-65
2022/06/29 09:43:34;;;;;;;1.10;0.00;;;30.30;32.60;;;;;;5081753;28;20054;-73
2022/06/29 09:46:03;;;;;;;2.47;0.10;;;30.30;32.20;;;;;;5066783;28;20040;-69
2022/06/29 09:48:32;;;;;;;4.55;0.10;;;30.30;32.20;;;;;;5082620;28;20052;-69
2022/06/29 09:51:30;;;;;;;0.50;0.47;;;30.40;32.00;;;;;;5072766;28;20250;-63
2022/06/29 09:53:53;;;;;;;1.50;0.15;;;30.40;31.90;;;;;;5070843;28;20044;-66
2022/06/29 09:56:22;;;;;;;0.43;0.10;;;30.40;31.90;;;;;;5064418;28;20051;-52
2022/06/29 09:58:50;;;;;;;1.65;0.00;;;30.50;31.60;;;;;;5072759;28;20040;-57
2022/06/29 10:04:03;;;;;;;2.08;0.45;;;30.50;31.30;;;;;;5073176;28;20078;-57
2022/06/29 10:06:32;;;;;;;0.13;0.10;;;30.50;31.30;;;;;;5083036;28;20489;-55
2022/06/29 10:09:01;;;;;;;1.13;0.10;;;30.60;31.10;;;;;;5077530;28;20076;-58
2022/06/29 10:14:37;;;;;;;0.35;0.00;;;30.70;31.00;;;;;;5077284;28;20032;-49
2022/06/29 10:17:16;;;;;;;3.00;0.10;;;30.70;30.70;;;;;;5070779;28;20040;-54
2022/06/29 10:19:52;;;;;;;0.73;0.10;;;30.60;30.80;;;;;;5076317;28;20040;-56
2022/06/29 10:22:21;;;;;;;0.90;0.25;;;30.70;30.80;;;;;;5077588;28;20041;-57
2022/06/29 10:25:03;;;;;;;2.88;1.10;;;30.60;30.10;;;;;;5075746;28;20594;-55
2022/06/29 10:27:31;;;;;;;0.60;0.10;;;30.60;30.00;;;;;;5076147;28;20075;-56
2022/06/29 10:30:21;;;;;;;1.45;0.20;;;30.60;30.00;;;;;;5067457;28;20048;-57
2022/06/29 10:32:49;;;;;;;0.10;0.10;;;30.60;30.00;;;;;;5076138;28;20102;-52
2022/06/29 10:35:16;;;;;;;0.50;0.10;;;30.50;30.00;;;;;;5078825;28;20044;-53
2022/06/29 10:37:53;;;;;;;3.25;0.10;;;30.50;29.90;;;;;;5078223;28;20621;-56
2022/06/29 10:40:22;;;;;;;1.35;0.08;;;30.50;29.70;;;;;;5079122;28;20508;-53
2022/06/29 10:45:44;;;;;;;0.10;0.08;;;30.50;29.30;;;;;;5073067;28;20055;-55
2022/06/29 10:48:14;;;;;;;0.38;0.10;;;30.40;29.20;;;;;;5071390;28;20055;-54
2022/06/29 10:50:42;;;;;;;0.63;0.10;;;30.40;29.10;;;;;;5075279;28;20074;-58
2022/06/29 10:53:12;;;;;;;0.77;0.00;;;30.30;28.70;;;;;;5075018;28;20134;-58
2022/06/29 10:55:42;;;;;;;0.65;0.10;;;30.20;29.00;;;;;;5082081;28;20066;-59
2022/06/29 10:58:10;;;;;;;2.63;0.28;;;30.10;29.20;;;;;;5070040;28;20462;-67
2022/06/29 11:00:39;;;;;;;2.15;0.80;;;30.00;29.00;;;;;;5073455;28;20122;-70
2022/06/29 11:03:10;;;;;;;1.48;0.10;;;29.90;28.80;;;;;;5073290;28;20040;-59
2022/06/29 11:12:01;;;;;;;0.32;0.32;;;29.80;28.90;;;;;;5078256;28;20075;-61
2022/06/29 11:14:03;;;;;;;1.23;0.10;;;29.70;29.00;;;;;;5075693;28;20493;-56
2022/06/29 11:16:33;;;;;;;0.03;0.00;;;29.70;29.40;;;;;;5078022;28;20524;-61
2022/06/29 11:19:00;;;;;;;1.30;0.10;;;29.80;29.70;;;;;;5076915;28;20048;-64
2022/06/29 11:21:32;;;;;;;1.65;0.10;;;29.90;29.60;;;;;;5077804;28;20592;-63
2022/06/29 11:24:05;;;;;;;1.98;0.17;;;29.90;29.40;;;;;;5072667;28;20080;-61
2022/06/29 11:26:35;;;;;;;0.08;0.00;;;30.00;29.30;;;;;;5076625;28;20105;-68
2022/06/29 11:29:03;;;;;;;0.43;0.28;;;30.10;29.50;;;;;;5074141;28;20522;-66
2022/06/29 11:31:31;;;;;;;4.35;0.00;;;30.20;29.10;;;;;;5083066;28;20041;-63
2022/06/29 11:33:59;;;;;;;0.30;0.10;;;30.10;29.00;;;;;;5073943;28;20098;-60
2022/06/29 11:36:28;;;;;;;1.48;0.10;;;30.20;29.10;;;;;;5065373;28;20039;-71
2022/06/29 11:38:57;;;;;;;0.57;0.08;;;30.20;29.10;;;;;;5070704;28;20052;-71
2022/06/29 11:43:03;;;;;;;0.30;0.10;;;30.30;29.00;;;;;;5072527;28;20072;-73
2022/06/29 11:44:27;;;;;;;2.75;0.40;;;30.30;29.00;;;;;;5059823;28;20036;-67
2022/06/29 11:46:55;;;;;;;1.48;0.10;;;30.50;29.30;;;;;;5074079;28;20143;-57
2022/06/29 11:49:36;;;;;;;3.28;0.20;;;30.50;29.40;;;;;;5074837;28;20094;-58
2022/06/29 11:52:08;;;;;;;4.43;0.10;;;30.70;29.30;;;;;;5069696;28;20045;-59
2022/06/29 11:54:37;;;;;;;2.05;0.63;;;30.80;29.20;;;;;;5078629;28;20047;-58
2022/06/29 11:57:10;;;;;;;3.78;0.25;;;30.80;29.10;;;;;;5072551;28;20083;-58
2022/06/29 11:59:39;;;;;;;3.15;0.25;;;30.90;29.00;;;;;;5074351;28;20094;-56
2022/06/29 12:02:07;;;;;;;3.00;0.30;;;30.90;29.20;;;;;;5074563;28;20085;-62
2022/06/29 12:04:37;;;;;;;1.50;0.05;;;31.00;29.30;;;;;;5076831;28;20097;-55
2022/06/29 12:07:09;;;;;;;1.65;0.10;;;31.00;29.20;;;;;;5053014;28;20059;-51
2022/06/29 12:09:38;;;;;;;1.25;0.00;;;31.10;29.50;;;;;;5079582;28;20047;-63
2022/06/29 12:12:10;;;;;;;0.10;0.10;;;31.10;29.30;;;;;;5085689;28;20796;-62
2022/06/29 12:14:38;;;;;;;3.70;0.22;;;31.20;29.20;;;;;;5058674;28;20037;-63
2022/06/29 12:17:07;;;;;;;1.55;0.32;;;31.20;29.70;;;;;;5076803;28;20126;-62
2022/06/29 12:19:35;;;;;;;0.63;0.10;;;31.20;29.80;;;;;;5076318;28;20039;-65
2022/06/29 12:22:04;;;;;;;3.20;0.10;;;31.30;30.00;;;;;;5077943;28;20105;-62
2022/06/29 12:24:32;;;;;;;0.35;0.00;;;31.40;29.60;;;;;;5062660;28;20044;-64
2022/06/29 12:27:01;;;;;;;0.28;0.08;;;31.40;29.00;;;;;;5075136;28;20718;-66
2022/06/29 12:29:31;;;;;;;0.22;0.08;;;31.50;28.90;;;;;;5077303;28;20040;-59
2022/06/29 12:31:58;;;;;;;0.50;0.10;;;31.60;29.70;;;;;;5082878;28;20047;-62
2022/06/29 12:34:26;;;;;;;0.30;0.03;;;31.60;29.50;;;;;;5069112;28;20040;-54
2022/06/29 12:36:53;;;;;;;2.72;0.20;;;31.60;29.50;;;;;;5084743;28;20044;-53
2022/06/29 12:39:21;;;;;;;1.90;0.55;;;31.70;29.40;;;;;;5072251;28;20041;-58
2022/06/29 12:41:48;;;;;;;1.40;0.10;;;31.70;30.00;;;;;;5074361;28;20048;-53
2022/06/29 12:44:15;;;;;;;1.05;0.10;;;31.80;30.60;;;;;;5080812;28;20123;-71
2022/06/29 12:46:44;;;;;;;1.30;0.10;;;31.80;31.60;;;;;;5057030;28;20568;-62
2022/06/29 12:49:18;;;;;;;2.10;0.10;;;31.90;32.70;;;;;;5054925;28;20048;-58
2022/06/29 12:51:46;;;;;;;1.00;0.10;;;32.00;32.60;;;;;;5078926;28;20056;-61
2022/06/29 12:54:13;;;;;;;0.52;0.20;;;32.00;32.80;;;;;;5079544;28;20131;-74
2022/06/29 12:56:40;;;;;;;2.33;0.10;;;32.10;31.80;;;;;;5073429;28;20045;-68
2022/06/29 12:59:08;;;;;;;1.15;0.05;;;32.10;31.40;;;;;;5043634;28;20044;-54
2022/06/29 13:01:35;;;;;;;0.43;0.10;;;32.10;31.20;;;;;;5074233;28;20122;-64
2022/06/29 13:04:04;;;;;;;1.05;0.00;;;32.10;31.50;;;;;;5075386;28;20051;-61
2022/06/29 13:06:32;;;;;;;0.32;0.00;;;32.10;31.50;;;;;;5056978;28;20055;-60
2022/06/29 13:08:59;;;;;;;1.95;0.10;;;32.10;31.60;;;;;;5074299;28;20082;-57
2022/06/29 13:11:26;;;;;;;1.38;0.03;;;32.10;31.60;;;;;;5077333;28;20043;-54
2022/06/29 13:13:53;;;;;;;0.03;0.00;;;32.20;31.70;;;;;;5078242;28;20814;-58
2022/06/29 13:16:20;;;;;;;0.30;0.10;;;32.20;31.20;;;;;;5070858;28;20398;-48